Time;durP1;ratioP1;P1;durP2;ratioP2;P2;SDS_P1;SDS_P2;PMS_P1;PMS_P2;Temp;Humidity;BMP_temperature;BMP_pressure;BME280_temperature;BME280_humidity;BME280_pressure;Samples;Min_cycle;Max_cycle;Signal;HPM_P1;HPM_P2
2024/04/26 00:00:54;;;;;;;31.20;12.50;;;;;;;5.62;62.86;99938.30;111080;1209;99035;-69
2024/04/26 00:03:23;;;;;;;25.30;12.80;;;;;;;5.58;62.86;99940.75;110866;1210;139036;-69
2024/04/26 00:05:48;;;;;;;29.50;12.80;;;;;;;5.55;62.96;99943.33;110998;1212;97806;-72
2024/04/26 00:08:16;;;;;;;33.00;12.90;;;;;;;5.53;62.94;99943.20;110870;1206;137910;-70
2024/04/26 00:10:41;;;;;;;27.50;12.70;;;;;;;5.52;63.13;99943.77;110916;1206;99031;-70
2024/04/26 00:13:07;;;;;;;27.50;12.60;;;;;;;5.51;63.07;99944.01;111093;1206;98977;-70
2024/04/26 00:15:32;;;;;;;31.60;12.60;;;;;;;5.49;63.13;99944.78;110860;1212;138595;-70
2024/04/26 00:17:59;;;;;;;28.40;12.90;;;;;;;5.47;63.27;99942.55;111057;1206;98926;-70
2024/04/26 00:20:24;;;;;;;33.00;12.80;;;;;;;5.45;63.27;99946.52;111002;1206;137900;-70
2024/04/26 00:22:49;;;;;;;35.10;12.20;;;;;;;5.42;63.31;99947.85;110955;1210;107478;-70
2024/04/26 00:25:14;;;;;;;26.40;11.30;;;;;;;5.40;63.37;99950.56;110872;1206;139951;-70
2024/04/26 00:27:40;;;;;;;24.80;9.70;;;;;;;5.39;63.47;99949.55;111135;1209;99041;-70
2024/04/26 00:30:05;;;;;;;23.60;10.30;;;;;;;5.38;63.64;99951.02;110985;1206;98936;-70
2024/04/26 00:32:31;;;;;;;19.80;9.50;;;;;;;5.38;63.67;99954.35;110832;1206;140229;-70
2024/04/26 00:34:56;;;;;;;23.30;9.30;;;;;;;5.39;63.55;99950.78;110983;1209;98981;-70
2024/04/26 00:37:21;;;;;;;18.20;8.90;;;;;;;5.36;63.58;99951.77;110847;1206;140225;-70
2024/04/26 00:39:46;;;;;;;22.20;10.00;;;;;;;5.34;63.83;99954.84;111016;1211;99039;-70
2024/04/26 00:42:12;;;;;;;19.60;8.70;;;;;;;5.32;63.81;99949.95;110970;1206;98920;-70
2024/04/26 00:44:37;;;;;;;17.40;8.30;;;;;;;5.33;63.86;99953.65;110881;1212;140148;-70
2024/04/26 00:47:03;;;;;;;21.00;9.30;;;;;;;5.32;63.94;99949.42;110996;1210;99045;-70
2024/04/26 00:49:28;;;;;;;21.70;8.50;;;;;;;5.32;63.86;99947.30;110847;1212;139206;-70
2024/04/26 00:51:56;;;;;;;23.90;9.00;;;;;;;5.32;64.13;99950.85;110986;1206;99053;-70
2024/04/26 00:54:24;;;;;;;21.40;9.20;;;;;;;5.30;64.16;99954.27;111011;1206;114198;-70
2024/04/26 00:56:53;;;;;;;21.10;9.10;;;;;;;5.30;64.22;99954.29;110798;1211;139239;-70
2024/04/26 00:59:18;;;;;;;26.20;10.80;;;;;;;5.29;64.28;99960.52;111124;1211;107417;-70
2024/04/26 01:01:44;;;;;;;25.70;10.20;;;;;;;5.28;64.33;99963.73;110793;1206;139960;-69
2024/04/26 01:04:09;;;;;;;25.50;10.00;;;;;;;5.24;64.34;99964.02;111108;1206;98932;-70
2024/04/26 01:06:34;;;;;;;24.60;8.90;;;;;;;5.20;64.50;99964.73;111036;1206;99598;-70
2024/04/26 01:09:00;;;;;;;19.10;8.50;;;;;;;5.20;64.55;99960.98;110918;1206;139171;-70
2024/04/26 01:11:27;;;;;;;18.00;7.90;;;;;;;5.19;64.60;99959.61;110989;1210;99077;-70
2024/04/26 01:13:52;;;;;;;17.90;8.40;;;;;;;5.20;64.51;99961.71;110975;1206;138466;-70
2024/04/26 01:16:18;;;;;;;17.90;8.10;;;;;;;5.18;64.43;99962.86;111137;1212;100180;-70
2024/04/26 01:18:43;;;;;;;19.80;7.80;;;;;;;5.17;64.74;99965.89;111068;1206;97783;-70
2024/04/26 01:21:08;;;;;;;13.90;7.30;;;;;;;5.17;64.65;99967.66;110951;1209;139605;-70
2024/04/26 01:23:34;;;;;;;16.20;8.00;;;;;;;5.14;64.82;99966.88;111088;1206;96649;-70
2024/04/26 01:26:01;;;;;;;17.30;7.30;;;;;;;5.09;64.88;99970.74;110895;1206;139641;-70
2024/04/26 01:28:28;;;;;;;13.80;7.10;;;;;;;5.08;64.86;99969.55;110998;1206;98938;-70
2024/04/26 01:30:54;;;;;;;11.30;6.40;;;;;;;5.06;64.93;99969.61;111097;1206;98926;-70
2024/04/26 01:33:21;;;;;;;19.00;7.20;;;;;;;5.02;64.84;99971.70;110879;1210;138730;-70
2024/04/26 01:35:46;;;;;;;14.90;7.50;;;;;;;5.01;64.96;99974.91;110912;1206;107433;-70
2024/04/26 01:38:11;;;;;;;18.70;6.80;;;;;;;5.00;65.00;99977.07;110836;1212;138501;-70
2024/04/26 01:40:36;;;;;;;15.30;7.10;;;;;;;4.98;65.18;99977.30;111089;1206;98997;-70
2024/04/26 01:43:02;;;;;;;14.60;6.80;;;;;;;4.96;65.20;99975.44;111038;1209;102945;-70
2024/04/26 01:45:27;;;;;;;15.30;6.60;;;;;;;4.94;65.23;99979.55;110894;1206;138836;-70
2024/04/26 01:47:53;;;;;;;15.50;8.30;;;;;;;4.93;65.38;99979.23;111008;1205;99514;-70
2024/04/26 01:50:18;;;;;;;18.10;8.90;;;;;;;4.92;65.24;99981.02;110875;1206;139888;-70
2024/04/26 01:52:44;;;;;;;23.10;9.60;;;;;;;4.88;65.19;99977.95;111088;1206;97812;-70
2024/04/26 01:55:11;;;;;;;19.40;8.00;;;;;;;4.85;65.27;99984.41;111009;1206;99016;-70
2024/04/26 01:57:41;;;;;;;27.10;9.20;;;;;;;4.81;65.21;99980.85;110994;1206;138212;-70
2024/04/26 02:00:08;;;;;;;19.70;9.10;;;;;;;4.76;65.43;99983.27;110973;1210;112375;-69
2024/04/26 02:02:35;;;;;;;22.70;9.30;;;;;;;4.72;65.28;99985.02;111008;1206;139196;-69
2024/04/26 02:05:00;;;;;;;20.80;8.70;;;;;;;4.69;65.40;99981.73;110951;1212;99005;-70
2024/04/26 02:07:25;;;;;;;19.00;9.20;;;;;;;4.66;65.41;99984.29;111099;1209;98940;-70
2024/04/26 02:09:51;;;;;;;17.40;8.50;;;;;;;4.62;65.73;99985.83;111019;1206;138657;-69
2024/04/26 02:12:17;;;;;;;21.00;9.40;;;;;;;4.60;65.51;99987.31;111143;1209;99006;-69
2024/04/26 02:14:43;;;;;;;20.90;9.10;;;;;;;4.56;65.70;99990.26;111017;1206;138274;-69
2024/04/26 02:17:08;;;;;;;17.30;8.30;;;;;;;4.54;65.52;99991.02;111126;1210;99019;-69
2024/04/26 02:19:34;;;;;;;17.30;8.50;;;;;;;4.51;65.70;99994.11;110957;1206;140725;-70
2024/04/26 02:21:59;;;;;;;21.00;9.00;;;;;;;4.47;65.79;99997.95;111070;1206;98995;-69
2024/04/26 02:24:24;;;;;;;20.30;9.30;;;;;;;4.44;65.80;99997.52;110981;1206;99492;-69
2024/04/26 02:26:49;;;;;;;22.90;8.00;;;;;;;4.40;65.98;100004.88;110948;1206;138610;-70
2024/04/26 02:29:14;;;;;;;18.60;8.60;;;;;;;4.37;65.76;100002.48;111092;1211;98939;-69
2024/04/26 02:31:40;;;;;;;22.30;9.40;;;;;;;4.34;65.90;100003.64;110862;1207;142414;-70
2024/04/26 02:34:05;;;;;;;22.60;9.60;;;;;;;4.33;66.19;100005.79;110985;1211;99010;-69
2024/04/26 02:36:30;;;;;;;20.00;8.90;;;;;;;4.31;65.96;100002.12;110877;1206;99468;-70
2024/04/26 02:38:57;;;;;;;19.50;8.90;;;;;;;4.28;66.00;100004.51;110913;1206;138376;-69
2024/04/26 02:41:23;;;;;;;24.70;9.30;;;;;;;4.27;66.24;100003.14;110998;1206;99035;-69
2024/04/26 02:43:49;;;;;;;19.50;9.00;;;;;;;4.25;66.30;100002.83;110859;1206;139161;-69
2024/04/26 02:46:14;;;;;;;18.90;8.40;;;;;;;4.23;66.39;100002.70;110947;1211;99099;-69
2024/04/26 02:48:40;;;;;;;17.10;9.30;;;;;;;4.20;66.21;100005.77;110784;1211;107851;-69
2024/04/26 02:51:05;;;;;;;23.40;8.60;;;;;;;4.18;66.21;100004.23;110711;1211;138673;-70
2024/04/26 02:53:30;;;;;;;16.60;8.50;;;;;;;4.17;66.24;100011.34;110826;1206;99476;-69
2024/04/26 02:55:55;;;;;;;23.10;8.60;;;;;;;4.14;66.32;100014.44;110678;1205;138698;-69
2024/04/26 02:58:20;;;;;;;18.20;9.40;;;;;;;4.13;66.34;100015.52;110868;1206;99037;-69
2024/04/26 03:00:47;;;;;;;18.30;8.90;;;;;;;4.11;66.51;100016.27;110824;1206;99048;-69
2024/04/26 03:03:12;;;;;;;20.00;8.00;;;;;;;4.09;66.61;100015.80;110695;1209;139058;-69
2024/04/26 03:05:37;;;;;;;19.60;8.80;;;;;;;4.08;66.46;100021.14;110826;1206;98954;-69
2024/04/26 03:08:03;;;;;;;26.10;10.00;;;;;;;4.06;66.69;100019.96;110789;1208;138971;-69
2024/04/26 03:10:28;;;;;;;24.20;8.50;;;;;;;4.04;66.81;100021.60;110804;1206;98945;-69
2024/04/26 03:12:53;;;;;;;15.30;7.20;;;;;;;4.01;66.79;100021.34;110910;1206;99170;-69
2024/04/26 03:15:19;;;;;;;20.00;9.00;;;;;;;3.98;66.71;100024.08;110691;1205;139103;-69
2024/04/26 03:17:44;;;;;;;23.60;8.80;;;;;;;3.96;66.76;100022.53;110811;1206;97821;-69
2024/04/26 03:20:09;;;;;;;19.30;9.30;;;;;;;3.95;66.83;100023.98;110730;1211;139385;-69
2024/04/26 03:22:34;;;;;;;19.20;8.10;;;;;;;3.92;67.00;100024.39;110991;1206;98977;-70
2024/04/26 03:25:00;;;;;;;21.20;7.40;;;;;;;3.90;66.94;100020.73;110983;1211;99036;-69
2024/04/26 03:27:25;;;;;;;20.20;8.20;;;;;;;3.90;67.06;100020.56;110911;1206;138577;-69
2024/04/26 03:29:50;;;;;;;17.80;8.70;;;;;;;3.88;66.99;100021.85;111053;1206;98993;-69
2024/04/26 03:32:15;;;;;;;17.30;8.10;;;;;;;3.86;67.10;100022.24;110908;1210;138777;-69
2024/04/26 03:34:42;;;;;;;18.60;8.60;;;;;;;3.83;67.14;100026.58;111048;1205;97868;-69
2024/04/26 03:37:07;;;;;;;15.30;7.80;;;;;;;3.80;67.15;100030.53;110974;1210;113117;-70
2024/04/26 03:39:32;;;;;;;19.50;9.50;;;;;;;3.80;67.45;100032.84;110859;1205;140122;-69
2024/04/26 03:41:59;;;;;;;15.30;7.80;;;;;;;3.79;67.31;100035.15;111095;1210;99041;-69
2024/04/26 03:44:24;;;;;;;17.70;8.50;;;;;;;3.78;67.43;100035.02;110930;1206;138638;-70
2024/04/26 03:46:49;;;;;;;19.80;9.00;;;;;;;3.77;67.41;100031.67;110972;1211;99811;-69
2024/04/26 03:49:14;;;;;;;22.80;9.00;;;;;;;3.75;67.37;100033.13;111056;1208;99153;-69
2024/04/26 03:51:39;;;;;;;17.90;7.90;;;;;;;3.75;67.44;100033.15;110823;1206;138933;-69
2024/04/26 03:54:05;;;;;;;16.90;8.00;;;;;;;3.74;67.64;100032.46;111097;1210;98951;-69
2024/04/26 03:56:30;;;;;;;18.00;8.40;;;;;;;3.75;67.59;100035.44;110852;1206;138607;-69
2024/04/26 03:58:55;;;;;;;15.40;7.90;;;;;;;3.77;67.78;100041.05;111066;1212;101241;-69
2024/04/26 04:01:20;;;;;;;17.40;8.30;;;;;;;3.77;67.96;100041.41;110942;1205;99051;-69
2024/04/26 04:03:45;;;;;;;16.70;8.20;;;;;;;3.77;67.65;100041.94;110795;1206;139065;-70
2024/04/26 04:06:11;;;;;;;15.90;7.60;;;;;;;3.76;67.62;100046.20;110977;1210;99119;-69
2024/04/26 04:08:36;;;;;;;16.60;8.80;;;;;;;3.76;67.85;100048.31;110777;1205;139384;-70
2024/04/26 04:11:01;;;;;;;13.70;8.00;;;;;;;3.78;68.02;100048.81;111076;1211;99064;-69
2024/04/26 04:13:27;;;;;;;18.70;8.10;;;;;;;3.78;67.94;100044.73;110951;1211;98926;-69
2024/04/26 04:15:52;;;;;;;21.30;8.40;;;;;;;3.79;68.07;100045.40;110808;1206;138692;-70
2024/04/26 04:18:17;;;;;;;16.10;7.50;;;;;;;3.80;67.96;100045.58;110953;1206;98997;-69
2024/04/26 04:20:42;;;;;;;17.80;8.10;;;;;;;3.80;67.89;100050.69;110820;1206;139315;-69
2024/04/26 04:23:08;;;;;;;15.20;7.80;;;;;;;3.81;68.18;100053.14;111029;1209;98940;-69
2024/04/26 04:25:33;;;;;;;15.90;7.00;;;;;;;3.81;68.19;100055.62;110818;1205;138846;-70
2024/04/26 04:27:58;;;;;;;15.00;7.90;;;;;;;3.82;68.21;100062.31;111039;1206;99021;-69
2024/04/26 04:30:23;;;;;;;13.50;7.40;;;;;;;3.81;68.41;100064.08;110901;1206;99135;-69
2024/04/26 04:32:48;;;;;;;13.80;7.10;;;;;;;3.83;68.36;100066.35;110869;1209;139797;-69
2024/04/26 04:35:14;;;;;;;12.90;7.50;;;;;;;3.83;68.39;100065.27;111023;1205;97349;-69
2024/04/26 04:37:40;;;;;;;13.80;7.60;;;;;;;3.84;68.39;100066.14;110886;1209;138875;-69
2024/04/26 04:40:08;;;;;;;16.10;6.90;;;;;;;3.86;68.43;100064.14;111041;1211;98971;-69
2024/04/26 04:42:33;;;;;;;13.00;7.20;;;;;;;3.88;68.60;100069.58;111083;1211;99046;-69
2024/04/26 04:44:59;;;;;;;16.60;7.20;;;;;;;3.88;68.56;100068.86;110967;1205;141375;-69
2024/04/26 04:47:24;;;;;;;13.40;7.40;;;;;;;3.90;68.50;100068.80;111077;1206;98996;-69
2024/04/26 04:49:49;;;;;;;15.80;8.40;;;;;;;3.92;68.69;100062.92;110866;1209;140309;-71
2024/04/26 04:52:14;;;;;;;18.40;7.30;;;;;;;3.95;68.68;100064.11;111091;1206;98533;-71
2024/04/26 04:54:39;;;;;;;16.70;7.10;;;;;;;3.98;68.76;100065.27;110992;1210;99035;-70
2024/04/26 04:57:05;;;;;;;16.70;7.40;;;;;;;3.99;68.83;100064.70;110940;1205;138567;-69
2024/04/26 04:59:31;;;;;;;15.50;7.50;;;;;;;4.01;68.84;100061.11;110843;1206;99000;-70
2024/04/26 05:01:56;;;;;;;13.10;7.30;;;;;;;4.02;68.59;100063.91;110666;1205;139771;-69
2024/04/26 05:04:21;;;;;;;18.90;7.70;;;;;;;4.04;68.83;100066.70;110892;1206;99069;-69
2024/04/26 05:06:47;;;;;;;18.30;9.00;;;;;;;4.04;68.81;100070.05;110777;1207;98970;-68
2024/04/26 05:09:12;;;;;;;13.80;7.40;;;;;;;4.06;68.95;100070.70;110806;1205;139301;-68
2024/04/26 05:11:37;;;;;;;16.60;8.30;;;;;;;4.08;68.93;100074.89;110733;1206;99690;-69
2024/04/26 05:14:02;;;;;;;14.80;8.10;;;;;;;4.11;68.94;100074.82;110780;1206;139163;-70
2024/04/26 05:16:27;;;;;;;16.10;8.00;;;;;;;4.13;69.07;100074.23;110814;1205;99078;-71
2024/04/26 05:18:52;;;;;;;18.10;8.30;;;;;;;4.16;69.03;100076.10;111027;1209;98929;-72
2024/04/26 05:21:18;;;;;;;18.60;9.00;;;;;;;4.18;69.04;100079.05;110843;1206;138666;-71
2024/04/26 05:23:43;;;;;;;26.40;9.10;;;;;;;4.21;69.30;100080.38;110819;1208;98999;-71
2024/04/26 05:26:08;;;;;;;17.40;8.10;;;;;;;4.25;69.28;100076.73;110926;1206;139272;-72
2024/04/26 05:28:33;;;;;;;19.00;7.90;;;;;;;4.30;69.17;100078.73;110907;1211;98990;-71
2024/04/26 05:30:59;;;;;;;19.80;8.80;;;;;;;4.34;69.29;100077.73;111017;1210;98948;-72
2024/04/26 05:33:24;;;;;;;15.80;7.80;;;;;;;4.37;69.45;100079.61;110820;1211;138656;-71
2024/04/26 05:35:50;;;;;;;18.00;7.90;;;;;;;4.39;69.25;100082.54;110990;1206;98932;-71
2024/04/26 05:38:15;;;;;;;19.70;8.30;;;;;;;4.43;69.25;100080.68;110945;1205;139149;-71
2024/04/26 05:40:42;;;;;;;20.70;8.70;;;;;;;4.46;69.31;100084.85;110882;1206;98961;-71
2024/04/26 05:43:07;;;;;;;19.90;8.50;;;;;;;4.48;69.32;100082.83;110983;1206;99037;-71
2024/04/26 05:45:33;;;;;;;17.30;7.10;;;;;;;4.52;69.38;100087.50;110891;1211;139335;-71
2024/04/26 05:47:58;;;;;;;15.70;7.60;;;;;;;4.58;69.42;100090.51;111014;1205;98678;-71
2024/04/26 05:50:23;;;;;;;18.50;8.10;;;;;;;4.62;69.53;100093.42;110786;1206;138801;-71
2024/04/26 05:52:48;;;;;;;16.80;7.40;;;;;;;4.65;69.68;100095.80;110989;1205;99087;-71
2024/04/26 05:55:14;;;;;;;14.50;7.80;;;;;;;4.70;69.52;100094.42;110967;1211;99489;-71
2024/04/26 05:57:39;;;;;;;25.10;8.50;;;;;;;4.75;69.61;100097.11;110900;1205;138619;-71
2024/04/26 06:00:11;;;;;;;23.20;8.30;;;;;;;4.79;69.59;100095.42;110876;1205;99055;-70
2024/04/26 06:02:37;;;;;;;;;;;;;;;4.84;69.71;100096.33;110839;1206;138551;-71
2024/04/26 06:05:08;;;;;;;21.30;8.10;;;;;;;4.87;69.69;100098.17;110967;1208;99452;-71
2024/04/26 06:07:34;;;;;;;14.70;7.50;;;;;;;4.90;69.55;100098.98;110820;1205;138743;-71
2024/04/26 06:09:59;;;;;;;15.30;7.40;;;;;;;4.94;69.73;100100.82;110956;1205;99061;-71
2024/04/26 06:12:25;;;;;;;16.20;7.20;;;;;;;4.97;69.72;100105.86;111076;1206;98933;-72
2024/04/26 06:14:50;;;;;;;15.30;7.40;;;;;;;5.02;69.80;100104.66;110814;1206;139211;-72
2024/04/26 06:17:16;;;;;;;17.40;8.50;;;;;;;5.07;69.73;100109.30;110911;1209;98951;-71
2024/04/26 06:19:42;;;;;;;17.50;8.20;;;;;;;5.10;69.82;100108.66;110705;1209;139051;-70
2024/04/26 06:22:07;;;;;;;23.30;7.20;;;;;;;5.16;69.77;100104.76;110867;1210;99018;-73
2024/04/26 06:24:32;;;;;;;15.40;7.30;;;;;;;5.23;69.98;100105.25;110885;1209;98938;-73
2024/04/26 06:26:57;;;;;;;16.50;7.20;;;;;;;5.28;69.74;100105.09;110664;1205;139289;-74
2024/04/26 06:29:22;;;;;;;18.20;6.90;;;;;;;5.33;69.90;100102.83;110781;1205;98990;-73
2024/04/26 06:31:50;;;;;;;14.30;6.50;;;;;;;5.38;69.83;100103.88;110878;1221;139431;-69
2024/04/26 06:34:15;;;;;;;15.30;7.40;;;;;;;5.44;69.91;100104.95;110859;1210;99913;-71
2024/04/26 06:36:40;;;;;;;16.60;6.70;;;;;;;5.50;70.00;100110.59;110730;1205;99150;-71
2024/04/26 06:39:06;;;;;;;16.80;7.70;;;;;;;5.60;69.74;100114.20;110755;1206;138670;-71
2024/04/26 06:41:31;;;;;;;15.10;7.00;;;;;;;5.67;69.82;100109.20;110881;1211;99041;-72
2024/04/26 06:43:56;;;;;;;15.40;7.00;;;;;;;5.72;69.75;100114.69;110795;1205;138913;-73
2024/04/26 06:46:21;;;;;;;20.10;7.20;;;;;;;5.77;69.76;100116.31;110887;1205;98935;-74
2024/04/26 06:48:46;;;;;;;25.00;9.10;;;;;;;5.83;69.93;100118.05;111007;1211;99116;-75
2024/04/26 06:51:12;;;;;;;18.00;7.60;;;;;;;5.91;69.89;100120.31;110863;1206;139050;-74
2024/04/26 06:53:37;;;;;;;15.20;6.90;;;;;;;5.98;69.96;100118.13;110911;1205;98943;-75
2024/04/26 06:56:02;;;;;;;14.70;7.20;;;;;;;6.05;69.87;100121.11;110935;1205;139466;-75
2024/04/26 06:58:27;;;;;;;15.50;6.60;;;;;;;6.11;69.87;100120.19;110958;1206;98940;-74
2024/04/26 07:00:53;;;;;;;17.00;7.00;;;;;;;6.15;69.84;100118.25;110996;1206;99069;-77
2024/04/26 07:03:18;;;;;;;17.00;6.90;;;;;;;6.22;69.80;100117.48;110850;1206;138781;-76
2024/04/26 07:05:44;;;;;;;14.90;6.50;;;;;;;6.30;69.85;100119.73;110947;1211;99461;-75
2024/04/26 07:08:11;;;;;;;21.00;7.00;;;;;;;6.38;69.84;100119.44;110947;1211;139651;-78
2024/04/26 07:10:38;;;;;;;11.90;5.90;;;;;;;6.44;69.77;100122.25;110919;1205;97616;-76
2024/04/26 07:13:03;;;;;;;15.50;5.90;;;;;;;6.53;69.79;100125.13;110936;1211;98921;-75
2024/04/26 07:15:28;;;;;;;16.30;6.00;;;;;;;6.58;69.59;100124.93;110869;1205;138595;-76
2024/04/26 07:17:53;;;;;;;17.50;6.30;;;;;;;6.62;69.69;100122.31;111012;1205;98919;-75
2024/04/26 07:20:18;;;;;;;11.40;5.70;;;;;;;6.68;69.69;100120.67;110915;1211;139057;-76
2024/04/26 07:22:44;;;;;;;12.90;5.30;;;;;;;6.72;69.61;100123.73;110909;1206;97796;-75
2024/04/26 07:25:09;;;;;;;9.10;4.70;;;;;;;6.78;69.56;100124.06;110976;1211;99038;-76
2024/04/26 07:27:34;;;;;;;11.80;5.00;;;;;;;6.86;69.54;100128.37;110857;1205;138510;-77
2024/04/26 07:29:59;;;;;;;10.60;4.50;;;;;;;6.94;69.48;100123.48;110966;1211;98980;-77
2024/04/26 07:32:24;;;;;;;10.60;4.60;;;;;;;6.96;69.53;100127.66;110905;1206;139773;-77
2024/04/26 07:34:50;;;;;;;10.70;5.30;;;;;;;7.03;69.38;100127.58;110940;1205;99092;-77
2024/04/26 07:37:15;;;;;;;9.40;4.30;;;;;;;7.10;69.37;100126.27;111008;1206;98967;-77
2024/04/26 07:39:40;;;;;;;10.70;3.70;;;;;;;7.14;69.25;100125.73;110859;1205;138519;-76
2024/04/26 07:42:07;;;;;;;9.10;4.30;;;;;;;7.19;69.15;100125.20;110995;1211;100058;-77
2024/04/26 07:44:34;;;;;;;9.40;4.10;;;;;;;7.27;69.03;100124.00;110873;1211;138720;-76
2024/04/26 07:46:59;;;;;;;8.10;4.00;;;;;;;7.33;68.99;100126.42;110928;1208;100756;-76
2024/04/26 07:49:27;;;;;;;11.40;4.50;;;;;;;7.39;68.86;100125.31;110981;1206;99000;-77
2024/04/26 07:51:53;;;;;;;7.30;4.50;;;;;;;7.41;68.81;100122.76;110882;1205;137795;-77
2024/04/26 07:54:18;;;;;;;10.40;3.90;;;;;;;7.45;68.80;100123.48;110993;1206;98936;-77
2024/04/26 07:56:44;;;;;;;9.40;4.00;;;;;;;7.51;68.73;100119.71;110827;1220;137875;-70
2024/04/26 07:59:09;;;;;;;6.70;3.90;;;;;;;7.55;68.53;100120.95;111027;1206;98933;-76
2024/04/26 08:01:34;;;;;;;7.10;4.40;;;;;;;7.61;68.56;100125.15;110929;1220;138808;-76
2024/04/26 08:03:59;;;;;;;5.80;4.00;;;;;;;7.66;68.42;100124.27;110899;1206;99014;-74
2024/04/26 08:06:25;;;;;;;14.90;4.20;;;;;;;7.69;68.31;100123.23;110991;1212;99041;-74
2024/04/26 08:08:51;;;;;;;8.80;4.30;;;;;;;7.70;68.29;100125.88;110825;1208;138507;-74
2024/04/26 08:11:16;;;;;;;4.80;3.40;;;;;;;7.74;68.19;100120.54;110954;1211;99111;-75
2024/04/26 08:13:41;;;;;;;6.30;3.70;;;;;;;7.76;68.09;100122.07;110788;1207;139410;-75
2024/04/26 08:16:08;;;;;;;11.20;3.60;;;;;;;7.80;68.03;100119.75;110935;1210;99052;-75
2024/04/26 08:18:33;;;;;;;8.90;3.90;;;;;;;7.87;67.95;100120.18;110876;1207;98226;-75
2024/04/26 08:20:58;;;;;;;6.60;3.70;;;;;;;7.89;67.84;100114.22;110739;1210;138862;-76
2024/04/26 08:23:24;;;;;;;10.50;4.40;;;;;;;7.93;67.77;100117.09;110823;1208;98955;-76
2024/04/26 08:25:49;;;;;;;5.70;3.80;;;;;;;7.96;67.71;100115.70;110769;1206;138841;-76
2024/04/26 08:28:14;;;;;;;10.20;3.50;;;;;;;8.06;67.67;100112.98;110644;1206;99324;-75
2024/04/26 08:30:40;;;;;;;5.20;2.80;;;;;;;8.10;67.54;100116.17;110840;1205;98942;-75
2024/04/26 08:33:05;;;;;;;5.30;3.00;;;;;;;8.17;67.44;100115.74;110814;1211;140319;-74
2024/04/26 08:35:30;;;;;;;9.00;3.00;;;;;;;8.25;67.36;100118.05;110854;1205;100412;-76
2024/04/26 08:37:56;;;;;;;6.70;3.00;;;;;;;8.32;67.21;100113.88;110898;1210;139316;-75
2024/04/26 08:40:21;;;;;;;8.50;3.70;;;;;;;8.36;67.09;100112.80;110955;1208;98949;-75
2024/04/26 08:42:47;;;;;;;6.80;3.60;;;;;;;8.43;67.04;100109.28;110871;1212;99061;-75
2024/04/26 08:45:17;;;;;;;8.10;4.10;;;;;;;8.48;66.94;100107.31;110825;1205;138060;-74
2024/04/26 08:47:43;;;;;;;7.50;3.60;;;;;;;8.52;66.77;100111.58;110836;1205;107104;-74
2024/04/26 08:50:09;;;;;;;9.20;3.80;;;;;;;8.60;66.72;100112.86;111004;1205;138836;-74
2024/04/26 08:52:36;;;;;;;5.10;3.20;;;;;;;8.67;66.59;100119.48;110960;1205;98962;-75
2024/04/26 08:55:01;;;;;;;10.80;4.40;;;;;;;8.73;66.55;100119.38;110964;1211;98990;-74
2024/04/26 08:57:30;;;;;;;7.20;3.30;;;;;;;8.80;66.39;100114.11;110647;1205;138233;-75
2024/04/26 09:00:03;;;;;;;7.60;3.70;;;;;;;8.84;66.26;100115.00;110872;1206;98597;-74
2024/04/26 09:02:28;;;;;;;5.70;3.20;;;;;;;8.88;66.13;100119.48;110760;1206;138173;-74
2024/04/26 09:04:55;;;;;;;5.90;3.40;;;;;;;8.90;66.11;100117.02;110816;1211;99141;-75
2024/04/26 09:07:20;;;;;;;5.90;3.00;;;;;;;8.96;65.84;100123.73;110876;1205;98938;-76
2024/04/26 09:09:50;;;;;;;6.90;3.80;;;;;;;8.99;65.70;100121.27;110749;1211;138352;-75
2024/04/26 09:12:16;;;;;;;9.80;3.50;;;;;;;9.00;65.57;100122.97;110818;1207;98203;-75
2024/04/26 09:14:42;;;;;;;10.30;3.60;;;;;;;9.05;65.37;100120.60;110627;1206;138210;-75
2024/04/26 09:17:11;;;;;;;5.70;3.10;;;;;;;9.10;65.30;100123.44;110871;1205;99283;-75
2024/04/26 09:19:37;;;;;;;4.60;2.90;;;;;;;9.15;65.21;100117.69;111434;1205;139322;-75
2024/04/26 09:22:03;;;;;;;8.50;3.20;;;;;;;9.23;65.18;100120.48;110896;1211;98963;-75
2024/04/26 09:24:29;;;;;;;15.10;3.00;;;;;;;9.30;64.87;100122.31;110818;1211;98932;-76
2024/04/26 09:26:55;;;;;;;5.80;2.70;;;;;;;9.36;64.74;100119.02;110811;1210;139020;-75
2024/04/26 09:29:20;;;;;;;4.30;3.10;;;;;;;9.45;64.57;100123.41;111098;1209;98967;-75
2024/04/26 09:31:45;;;;;;;6.30;3.10;;;;;;;9.58;64.52;100119.40;110783;1211;140048;-74
2024/04/26 09:34:11;;;;;;;5.80;3.80;;;;;;;9.63;64.16;100120.76;110882;1205;98926;-75
2024/04/26 09:36:39;;;;;;;7.80;3.50;;;;;;;9.69;64.10;100119.91;110815;1211;99029;-74
2024/04/26 09:39:05;;;;;;;6.20;3.30;;;;;;;9.76;64.01;100125.66;110844;1210;137979;-75
2024/04/26 09:41:33;;;;;;;6.20;3.10;;;;;;;9.85;63.73;100120.20;110860;1207;98931;-74
2024/04/26 09:44:01;;;;;;;11.70;3.60;;;;;;;9.86;63.57;100122.86;110789;1206;137985;-75
2024/04/26 09:46:29;;;;;;;14.10;3.30;;;;;;;9.86;63.38;100122.48;111038;1205;107499;-75
2024/04/26 09:48:55;;;;;;;9.60;3.20;;;;;;;9.89;63.20;100118.95;110912;1205;98942;-75
2024/04/26 09:51:24;;;;;;;10.50;3.80;;;;;;;9.95;63.16;100119.21;110633;1211;140612;-75
2024/04/26 09:53:51;;;;;;;6.60;3.50;;;;;;;9.99;62.91;100122.21;110731;1206;112491;-75
2024/04/26 09:56:16;;;;;;;5.90;2.80;;;;;;;10.01;62.80;100119.42;110750;1216;138029;-75
2024/04/26 09:58:42;;;;;;;6.20;2.70;;;;;;;10.00;62.59;100114.14;110864;1206;99009;-76
2024/04/26 10:01:09;;;;;;;5.80;2.70;;;;;;;9.99;62.54;100114.53;110920;1211;98952;-75
2024/04/26 10:03:37;;;;;;;8.50;3.40;;;;;;;10.04;62.30;100123.23;110659;1206;138070;-75
2024/04/26 10:06:04;;;;;;;4.60;2.90;;;;;;;10.05;62.08;100118.86;110860;1206;100718;-75
2024/04/26 10:08:35;;;;;;;4.60;2.40;;;;;;;10.07;61.98;100116.25;110736;1206;139132;-75
2024/04/26 10:11:08;;;;;;;8.30;3.20;;;;;;;10.09;61.77;100117.41;110888;1209;100403;-75
2024/04/26 10:14:09;;;;;;;6.00;2.10;;;;;;;10.08;61.44;100114.61;110746;1205;99014;-75
2024/04/26 10:16:37;;;;;;;3.30;1.90;;;;;;;10.08;61.31;100114.45;110854;1211;113305;-75
2024/04/26 10:19:14;;;;;;;4.50;2.00;;;;;;;10.14;61.18;100112.71;110867;1210;99539;-75
2024/04/26 10:21:40;;;;;;;7.00;2.50;;;;;;;10.24;60.93;100101.55;110957;1205;138092;-75
2024/04/26 10:24:05;;;;;;;6.40;2.30;;;;;;;10.28;60.71;100100.96;110890;1206;99014;-75
2024/04/26 10:26:30;;;;;;;6.90;2.60;;;;;;;10.33;60.59;100105.91;110729;1206;138274;-76
2024/04/26 10:28:56;;;;;;;7.30;2.40;;;;;;;10.37;60.49;100104.98;110836;1205;98959;-75
2024/04/26 10:31:30;;;;;;;5.70;2.30;;;;;;;10.41;60.27;100099.19;110782;1210;97806;-74
2024/04/26 10:33:58;;;;;;;9.10;2.40;;;;;;;10.49;60.08;100094.85;110790;1205;138138;-75
2024/04/26 10:36:24;;;;;;;13.80;2.40;;;;;;;10.59;59.92;100093.63;110804;1212;98998;-77
2024/04/26 10:38:49;;;;;;;5.50;1.70;;;;;;;10.69;59.84;100095.57;110442;1207;137855;-77
2024/04/26 10:41:17;;;;;;;4.90;2.00;;;;;;;10.75;59.59;100098.51;110876;1205;99007;-77
2024/04/26 10:43:43;;;;;;;5.40;2.10;;;;;;;10.80;59.49;100094.83;110654;1205;138076;-77
2024/04/26 10:46:08;;;;;;;6.00;2.30;;;;;;;10.87;59.32;100090.67;110885;1208;99042;-75
2024/04/26 10:48:35;;;;;;;4.40;2.10;;;;;;;10.97;59.13;100081.43;110910;1206;99006;-77
2024/04/26 10:51:12;;;;;;;4.90;1.90;;;;;;;11.09;58.96;100083.95;110717;1212;141870;-76
2024/04/26 10:53:40;;;;;;;9.70;2.80;;;;;;;11.24;58.67;100081.38;110795;1211;99049;-77
2024/04/26 10:56:16;;;;;;;5.60;1.90;;;;;;;11.37;58.61;100079.73;110790;1210;138246;-77
2024/04/26 10:58:42;;;;;;;3.20;1.70;;;;;;;11.53;58.47;100079.41;110963;1206;113347;-77
2024/04/26 11:01:18;;;;;;;6.10;2.20;;;;;;;11.63;58.11;100081.52;110946;1210;99048;-77
2024/04/26 11:03:52;;;;;;;12.60;2.40;;;;;;;11.69;57.93;100080.44;110845;1206;138144;-77
2024/04/26 11:06:35;;;;;;;3.30;1.60;;;;;;;11.78;57.60;100077.98;110983;1211;98958;-77
2024/04/26 11:09:12;;;;;;;4.10;2.10;;;;;;;11.86;57.41;100080.74;110893;1210;137923;-77
2024/04/26 11:11:38;;;;;;;6.10;2.00;;;;;;;11.93;57.20;100078.36;110892;1205;112317;-77